sensor_id;sensor_type;location;lat;lon;timestamp;P1;durP1;ratioP1;P2;durP2;ratioP2
27402;SDS011;14862;49.494;8.530;2023-03-01T00:00:25;16.90;;;10.00;;
27402;SDS011;14862;49.494;8.530;2023-03-01T00:02:50;20.17;;;10.65;;
27402;SDS011;14862;49.494;8.530;2023-03-01T00:05:15;18.93;;;10.97;;
27402;SDS011;14862;49.494;8.530;2023-03-01T00:07:40;17.77;;;11.25;;
27402;SDS011;14862;49.494;8.530;2023-03-01T00:10:06;24.25;;;9.85;;
27402;SDS011;14862;49.494;8.530;2023-03-01T00:12:31;21.08;;;11.68;;
27402;SDS011;14862;49.494;8.530;2023-03-01T00:14:59;19.70;;;11.20;;
27402;SDS011;14862;49.494;8.530;2023-03-01T00:17:25;17.98;;;10.95;;
27402;SDS011;14862;49.494;8.530;2023-03-01T00:19:50;16.63;;;10.23;;
27402;SDS011;14862;49.494;8.530;2023-03-01T00:22:15;19.77;;;11.32;;
27402;SDS011;14862;49.494;8.530;2023-03-01T00:24:40;20.02;;;11.35;;
27402;SDS011;14862;49.494;8.530;2023-03-01T00:27:06;17.27;;;10.53;;
27402;SDS011;14862;49.494;8.530;2023-03-01T00:29:31;19.38;;;11.90;;
27402;SDS011;14862;49.494;8.530;2023-03-01T00:31:56;21.35;;;11.27;;
27402;SDS011;14862;49.494;8.530;2023-03-01T00:34:21;19.98;;;11.70;;
27402;SDS011;14862;49.494;8.530;2023-03-01T00:36:46;21.67;;;11.63;;
27402;SDS011;14862;49.494;8.530;2023-03-01T00:39:13;18.77;;;11.25;;
27402;SDS011;14862;49.494;8.530;2023-03-01T00:41:39;21.83;;;12.18;;
27402;SDS011;14862;49.494;8.530;2023-03-01T00:44:05;19.95;;;11.15;;
27402;SDS011;14862;49.494;8.530;2023-03-01T00:46:30;24.20;;;13.25;;
27402;SDS011;14862;49.494;8.530;2023-03-01T00:48:55;22.92;;;12.32;;
27402;SDS011;14862;49.494;8.530;2023-03-01T00:51:24;20.30;;;12.23;;
27402;SDS011;14862;49.494;8.530;2023-03-01T00:53:51;21.52;;;11.73;;
27402;SDS011;14862;49.494;8.530;2023-03-01T00:56:16;19.08;;;11.93;;
27402;SDS011;14862;49.494;8.530;2023-03-01T00:58:42;18.45;;;12.32;;
27402;SDS011;14862;49.494;8.530;2023-03-01T01:01:08;21.60;;;12.05;;
27402;SDS011;14862;49.494;8.530;2023-03-01T01:03:41;21.05;;;12.35;;
27402;SDS011;14862;49.494;8.530;2023-03-01T01:06:12;23.40;;;13.35;;
27402;SDS011;14862;49.494;8.530;2023-03-01T01:08:37;22.40;;;13.40;;
27402;SDS011;14862;49.494;8.530;2023-03-01T01:11:02;23.02;;;11.88;;
27402;SDS011;14862;49.494;8.530;2023-03-01T01:13:28;22.55;;;13.80;;
27402;SDS011;14862;49.494;8.530;2023-03-01T01:15:53;23.10;;;13.27;;
27402;SDS011;14862;49.494;8.530;2023-03-01T01:18:18;22.97;;;13.33;;
27402;SDS011;14862;49.494;8.530;2023-03-01T01:20:43;24.90;;;13.32;;
27402;SDS011;14862;49.494;8.530;2023-03-01T01:23:08;25.08;;;13.00;;
27402;SDS011;14862;49.494;8.530;2023-03-01T01:25:34;20.13;;;11.55;;
27402;SDS011;14862;49.494;8.530;2023-03-01T01:28:00;30.00;;;12.98;;
27402;SDS011;14862;49.494;8.530;2023-03-01T01:30:25;23.90;;;13.70;;
27402;SDS011;14862;49.494;8.530;2023-03-01T01:32:50;25.75;;;14.05;;
27402;SDS011;14862;49.494;8.530;2023-03-01T01:35:15;21.35;;;12.27;;
27402;SDS011;14862;49.494;8.530;2023-03-01T01:37:40;23.13;;;12.98;;
27402;SDS011;14862;49.494;8.530;2023-03-01T01:40:06;21.98;;;13.10;;
27402;SDS011;14862;49.494;8.530;2023-03-01T01:42:31;23.77;;;12.80;;
27402;SDS011;14862;49.494;8.530;2023-03-01T01:45:24;23.27;;;13.73;;
27402;SDS011;14862;49.494;8.530;2023-03-01T01:47:51;22.30;;;12.47;;
27402;SDS011;14862;49.494;8.530;2023-03-01T01:50:17;25.08;;;13.00;;
27402;SDS011;14862;49.494;8.530;2023-03-01T01:52:43;21.40;;;13.38;;
27402;SDS011;14862;49.494;8.530;2023-03-01T01:55:10;27.38;;;13.73;;
27402;SDS011;14862;49.494;8.530;2023-03-01T01:57:43;23.83;;;13.88;;
27402;SDS011;14862;49.494;8.530;2023-03-01T02:00:12;25.02;;;14.00;;
27402;SDS011;14862;49.494;8.530;2023-03-01T02:02:37;25.88;;;14.55;;
27402;SDS011;14862;49.494;8.530;2023-03-01T02:05:11;26.80;;;14.90;;
27402;SDS011;14862;49.494;8.530;2023-03-01T02:07:40;28.85;;;15.27;;
27402;SDS011;14862;49.494;8.530;2023-03-01T02:10:07;29.38;;;14.63;;
27402;SDS011;14862;49.494;8.530;2023-03-01T02:12:32;24.98;;;15.32;;
27402;SDS011;14862;49.494;8.530;2023-03-01T02:14:58;25.85;;;14.82;;
27402;SDS011;14862;49.494;8.530;2023-03-01T02:17:23;25.02;;;15.15;;
27402;SDS011;14862;49.494;8.530;2023-03-01T02:27:13;27.45;;;15.38;;
27402;SDS011;14862;49.494;8.530;2023-03-01T02:29:38;24.08;;;14.90;;
27402;SDS011;14862;49.494;8.530;2023-03-01T02:32:03;26.75;;;16.13;;
27402;SDS011;14862;49.494;8.530;2023-03-01T02:34:29;26.70;;;14.55;;
27402;SDS011;14862;49.494;8.530;2023-03-01T02:36:57;27.73;;;15.20;;
27402;SDS011;14862;49.494;8.530;2023-03-01T02:39:26;27.02;;;15.07;;
27402;SDS011;14862;49.494;8.530;2023-03-01T02:41:54;24.63;;;13.90;;
27402;SDS011;14862;49.494;8.530;2023-03-01T02:44:21;26.05;;;15.57;;
27402;SDS011;14862;49.494;8.530;2023-03-01T02:46:48;27.08;;;14.88;;
27402;SDS011;14862;49.494;8.530;2023-03-01T02:49:27;25.58;;;14.98;;
27402;SDS011;14862;49.494;8.530;2023-03-01T02:57:05;28.23;;;15.77;;
27402;SDS011;14862;49.494;8.530;2023-03-01T02:59:31;27.10;;;16.05;;
27402;SDS011;14862;49.494;8.530;2023-03-01T03:01:59;25.00;;;14.02;;
27402;SDS011;14862;49.494;8.530;2023-03-01T03:04:25;24.20;;;14.35;;
27402;SDS011;14862;49.494;8.530;2023-03-01T03:06:50;28.77;;;15.65;;
27402;SDS011;14862;49.494;8.530;2023-03-01T03:09:16;27.00;;;14.38;;
27402;SDS011;14862;49.494;8.530;2023-03-01T03:11:42;28.35;;;15.90;;
27402;SDS011;14862;49.494;8.530;2023-03-01T03:14:11;24.52;;;13.93;;
27402;SDS011;14862;49.494;8.530;2023-03-01T03:16:40;25.65;;;14.80;;
27402;SDS011;14862;49.494;8.530;2023-03-01T03:19:06;26.58;;;14.90;;
27402;SDS011;14862;49.494;8.530;2023-03-01T03:21:32;24.60;;;14.57;;
27402;SDS011;14862;49.494;8.530;2023-03-01T03:23:57;26.48;;;13.35;;
27402;SDS011;14862;49.494;8.530;2023-03-01T03:26:26;24.38;;;14.73;;
27402;SDS011;14862;49.494;8.530;2023-03-01T03:28:51;26.88;;;14.75;;
27402;SDS011;14862;49.494;8.530;2023-03-01T03:31:16;26.27;;;15.27;;
27402;SDS011;14862;49.494;8.530;2023-03-01T03:33:42;23.15;;;13.73;;
27402;SDS011;14862;49.494;8.530;2023-03-01T03:36:07;24.27;;;13.48;;
27402;SDS011;14862;49.494;8.530;2023-03-01T03:38:38;25.40;;;14.07;;
27402;SDS011;14862;49.494;8.530;2023-03-01T03:41:04;27.73;;;13.63;;
27402;SDS011;14862;49.494;8.530;2023-03-01T03:43:31;24.67;;;13.77;;
27402;SDS011;14862;49.494;8.530;2023-03-01T03:45:57;24.85;;;13.98;;
27402;SDS011;14862;49.494;8.530;2023-03-01T03:48:23;27.05;;;15.07;;
27402;SDS011;14862;49.494;8.530;2023-03-01T03:50:57;23.83;;;13.23;;
27402;SDS011;14862;49.494;8.530;2023-03-01T03:53:23;38.25;;;15.07;;
27402;SDS011;14862;49.494;8.530;2023-03-01T03:55:49;28.90;;;15.35;;
27402;SDS011;14862;49.494;8.530;2023-03-01T03:58:14;34.60;;;16.17;;
27402;SDS011;14862;49.494;8.530;2023-03-01T04:00:41;29.90;;;15.90;;
27402;SDS011;14862;49.494;8.530;2023-03-01T04:03:07;25.35;;;15.02;;
27402;SDS011;14862;49.494;8.530;2023-03-01T04:05:32;27.80;;;14.77;;
27402;SDS011;14862;49.494;8.530;2023-03-01T04:07:58;29.67;;;15.52;;
27402;SDS011;14862;49.494;8.530;2023-03-01T04:10:27;29.95;;;15.48;;
27402;SDS011;14862;49.494;8.530;2023-03-01T04:12:52;29.80;;;16.05;;
27402;SDS011;14862;49.494;8.530;2023-03-01T04:15:17;26.10;;;15.00;;
27402;SDS011;14862;49.494;8.530;2023-03-01T04:17:44;30.83;;;17.60;;
27402;SDS011;14862;49.494;8.530;2023-03-01T04:20:13;34.60;;;15.85;;
27402;SDS011;14862;49.494;8.530;2023-03-01T04:22:39;28.65;;;16.50;;
27402;SDS011;14862;49.494;8.530;2023-03-01T04:25:05;28.70;;;16.77;;
27402;SDS011;14862;49.494;8.530;2023-03-01T04:27:31;29.70;;;16.83;;
27402;SDS011;14862;49.494;8.530;2023-03-01T04:29:57;30.65;;;15.45;;
27402;SDS011;14862;49.494;8.530;2023-03-01T04:32:22;31.42;;;16.27;;
27402;SDS011;14862;49.494;8.530;2023-03-01T04:34:47;31.42;;;16.10;;
27402;SDS011;14862;49.494;8.530;2023-03-01T04:37:12;33.42;;;16.95;;
27402;SDS011;14862;49.494;8.530;2023-03-01T04:39:37;30.00;;;15.85;;
27402;SDS011;14862;49.494;8.530;2023-03-01T04:42:10;29.58;;;16.35;;
27402;SDS011;14862;49.494;8.530;2023-03-01T04:44:36;33.70;;;16.55;;
27402;SDS011;14862;49.494;8.530;2023-03-01T04:47:01;28.77;;;15.98;;
27402;SDS011;14862;49.494;8.530;2023-03-01T04:49:26;30.45;;;15.50;;
27402;SDS011;14862;49.494;8.530;2023-03-01T04:51:51;33.33;;;16.70;;
27402;SDS011;14862;49.494;8.530;2023-03-01T04:54:16;32.22;;;16.33;;
27402;SDS011;14862;49.494;8.530;2023-03-01T04:56:42;32.50;;;14.70;;
27402;SDS011;14862;49.494;8.530;2023-03-01T04:59:07;33.40;;;16.13;;
27402;SDS011;14862;49.494;8.530;2023-03-01T05:01:35;35.45;;;17.48;;
27402;SDS011;14862;49.494;8.530;2023-03-01T05:04:00;26.80;;;16.23;;
27402;SDS011;14862;49.494;8.530;2023-03-01T05:06:27;30.63;;;15.93;;
27402;SDS011;14862;49.494;8.530;2023-03-01T05:08:53;33.88;;;16.80;;
27402;SDS011;14862;49.494;8.530;2023-03-01T05:11:18;29.50;;;16.48;;
27402;SDS011;14862;49.494;8.530;2023-03-01T05:13:43;31.80;;;17.13;;
27402;SDS011;14862;49.494;8.530;2023-03-01T05:16:09;32.85;;;17.20;;
27402;SDS011;14862;49.494;8.530;2023-03-01T05:18:37;33.17;;;17.38;;
27402;SDS011;14862;49.494;8.530;2023-03-01T05:21:06;34.05;;;18.50;;
27402;SDS011;14862;49.494;8.530;2023-03-01T05:23:32;30.98;;;16.83;;
27402;SDS011;14862;49.494;8.530;2023-03-01T05:25:58;33.50;;;16.85;;
27402;SDS011;14862;49.494;8.530;2023-03-01T05:28:24;34.50;;;17.70;;
27402;SDS011;14862;49.494;8.530;2023-03-01T05:30:50;30.30;;;17.42;;
27402;SDS011;14862;49.494;8.530;2023-03-01T05:33:16;33.58;;;18.40;;
27402;SDS011;14862;49.494;8.530;2023-03-01T05:35:42;31.33;;;17.25;;
27402;SDS011;14862;49.494;8.530;2023-03-01T05:38:08;31.02;;;17.25;;
27402;SDS011;14862;49.494;8.530;2023-03-01T05:40:34;31.88;;;17.30;;
27402;SDS011;14862;49.494;8.530;2023-03-01T05:42:59;29.23;;;16.85;;
27402;SDS011;14862;49.494;8.530;2023-03-01T05:45:25;32.67;;;16.92;;
27402;SDS011;14862;49.494;8.530;2023-03-01T05:47:52;36.70;;;18.33;;
27402;SDS011;14862;49.494;8.530;2023-03-01T05:50:21;32.05;;;17.02;;
27402;SDS011;14862;49.494;8.530;2023-03-01T05:52:50;33.40;;;18.08;;
27402;SDS011;14862;49.494;8.530;2023-03-01T05:55:17;32.38;;;18.75;;
27402;SDS011;14862;49.494;8.530;2023-03-01T05:57:42;33.53;;;18.33;;
27402;SDS011;14862;49.494;8.530;2023-03-01T06:00:08;35.00;;;17.52;;
27402;SDS011;14862;49.494;8.530;2023-03-01T06:02:34;29.50;;;16.98;;
27402;SDS011;14862;49.494;8.530;2023-03-01T06:04:59;30.10;;;16.45;;
27402;SDS011;14862;49.494;8.530;2023-03-01T06:07:24;32.53;;;16.83;;
27402;SDS011;14862;49.494;8.530;2023-03-01T06:09:49;32.05;;;17.23;;
27402;SDS011;14862;49.494;8.530;2023-03-01T06:12:15;38.40;;;17.77;;
27402;SDS011;14862;49.494;8.530;2023-03-01T06:14:40;31.77;;;16.75;;
27402;SDS011;14862;49.494;8.530;2023-03-01T06:17:05;31.23;;;17.30;;
27402;SDS011;14862;49.494;8.530;2023-03-01T06:19:30;33.15;;;17.23;;
27402;SDS011;14862;49.494;8.530;2023-03-01T06:21:55;34.53;;;17.25;;
27402;SDS011;14862;49.494;8.530;2023-03-01T06:24:21;27.55;;;16.02;;
27402;SDS011;14862;49.494;8.530;2023-03-01T06:26:46;31.83;;;17.42;;
27402;SDS011;14862;49.494;8.530;2023-03-01T06:29:11;31.13;;;17.33;;
27402;SDS011;14862;49.494;8.530;2023-03-01T06:31:36;29.45;;;17.42;;
27402;SDS011;14862;49.494;8.530;2023-03-01T06:34:02;32.85;;;18.38;;
27402;SDS011;14862;49.494;8.530;2023-03-01T06:36:27;30.05;;;17.83;;
27402;SDS011;14862;49.494;8.530;2023-03-01T06:38:52;27.77;;;16.25;;
27402;SDS011;14862;49.494;8.530;2023-03-01T06:41:18;32.30;;;17.23;;
27402;SDS011;14862;49.494;8.530;2023-03-01T06:43:43;30.45;;;17.92;;
27402;SDS011;14862;49.494;8.530;2023-03-01T06:46:08;31.00;;;16.20;;
27402;SDS011;14862;49.494;8.530;2023-03-01T06:48:34;31.77;;;17.75;;
27402;SDS011;14862;49.494;8.530;2023-03-01T06:50:59;30.27;;;17.08;;
27402;SDS011;14862;49.494;8.530;2023-03-01T06:53:25;31.00;;;17.10;;
27402;SDS011;14862;49.494;8.530;2023-03-01T06:55:54;27.85;;;15.95;;
27402;SDS011;14862;49.494;8.530;2023-03-01T06:58:19;29.13;;;16.30;;
27402;SDS011;14862;49.494;8.530;2023-03-01T07:00:44;25.30;;;15.48;;
27402;SDS011;14862;49.494;8.530;2023-03-01T07:03:10;27.33;;;15.85;;
27402;SDS011;14862;49.494;8.530;2023-03-01T07:05:35;26.27;;;16.25;;
27402;SDS011;14862;49.494;8.530;2023-03-01T07:08:00;31.88;;;16.95;;
27402;SDS011;14862;49.494;8.530;2023-03-01T07:10:25;25.57;;;15.23;;
27402;SDS011;14862;49.494;8.530;2023-03-01T07:12:54;26.23;;;15.85;;
27402;SDS011;14862;49.494;8.530;2023-03-01T07:15:19;35.17;;;17.80;;
27402;SDS011;14862;49.494;8.530;2023-03-01T07:17:44;27.90;;;15.52;;
27402;SDS011;14862;49.494;8.530;2023-03-01T07:20:12;29.00;;;17.38;;
27402;SDS011;14862;49.494;8.530;2023-03-01T07:22:39;24.60;;;16.10;;
27402;SDS011;14862;49.494;8.530;2023-03-01T07:25:04;25.60;;;15.32;;
27402;SDS011;14862;49.494;8.530;2023-03-01T07:27:29;23.75;;;15.55;;
27402;SDS011;14862;49.494;8.530;2023-03-01T07:29:54;27.60;;;17.20;;
27402;SDS011;14862;49.494;8.530;2023-03-01T07:32:20;21.60;;;14.17;;
27402;SDS011;14862;49.494;8.530;2023-03-01T07:34:45;24.83;;;15.63;;
27402;SDS011;14862;49.494;8.530;2023-03-01T07:37:10;23.33;;;15.15;;
27402;SDS011;14862;49.494;8.530;2023-03-01T07:39:35;23.30;;;16.13;;
27402;SDS011;14862;49.494;8.530;2023-03-01T07:42:00;22.88;;;15.02;;
27402;SDS011;14862;49.494;8.530;2023-03-01T07:44:26;24.07;;;15.10;;
27402;SDS011;14862;49.494;8.530;2023-03-01T07:46:51;21.75;;;15.15;;
27402;SDS011;14862;49.494;8.530;2023-03-01T07:49:21;20.75;;;15.30;;
27402;SDS011;14862;49.494;8.530;2023-03-01T07:51:46;23.15;;;15.00;;
27402;SDS011;14862;49.494;8.530;2023-03-01T07:54:11;19.87;;;14.33;;
27402;SDS011;14862;49.494;8.530;2023-03-01T07:56:36;20.73;;;14.60;;
27402;SDS011;14862;49.494;8.530;2023-03-01T07:59:02;18.60;;;14.17;;
27402;SDS011;14862;49.494;8.530;2023-03-01T08:01:27;22.73;;;15.13;;
27402;SDS011;14862;49.494;8.530;2023-03-01T08:03:52;23.48;;;14.98;;
27402;SDS011;14862;49.494;8.530;2023-03-01T08:06:17;21.65;;;14.90;;
27402;SDS011;14862;49.494;8.530;2023-03-01T08:08:43;21.77;;;14.95;;
27402;SDS011;14862;49.494;8.530;2023-03-01T08:11:10;21.60;;;15.25;;
27402;SDS011;14862;49.494;8.530;2023-03-01T08:13:35;19.05;;;14.20;;
27402;SDS011;14862;49.494;8.530;2023-03-01T08:16:07;21.52;;;14.85;;
27402;SDS011;14862;49.494;8.530;2023-03-01T08:18:32;23.08;;;15.23;;
27402;SDS011;14862;49.494;8.530;2023-03-01T08:21:08;20.33;;;14.40;;
27402;SDS011;14862;49.494;8.530;2023-03-01T08:23:33;19.40;;;14.75;;
27402;SDS011;14862;49.494;8.530;2023-03-01T08:28:31;22.58;;;14.82;;
27402;SDS011;14862;49.494;8.530;2023-03-01T08:30:56;21.75;;;16.00;;
27402;SDS011;14862;49.494;8.530;2023-03-01T08:33:21;20.67;;;14.43;;
27402;SDS011;14862;49.494;8.530;2023-03-01T08:35:47;19.50;;;14.30;;
27402;SDS011;14862;49.494;8.530;2023-03-01T08:38:12;21.52;;;14.60;;
27402;SDS011;14862;49.494;8.530;2023-03-01T08:40:37;19.38;;;13.95;;
27402;SDS011;14862;49.494;8.530;2023-03-01T08:43:02;23.00;;;15.32;;
27402;SDS011;14862;49.494;8.530;2023-03-01T08:45:28;20.35;;;14.45;;
27402;SDS011;14862;49.494;8.530;2023-03-01T08:47:53;21.55;;;16.02;;
27402;SDS011;14862;49.494;8.530;2023-03-01T08:50:18;22.25;;;15.45;;
27402;SDS011;14862;49.494;8.530;2023-03-01T08:52:44;24.45;;;17.23;;
27402;SDS011;14862;49.494;8.530;2023-03-01T08:55:09;22.80;;;15.73;;
27402;SDS011;14862;49.494;8.530;2023-03-01T08:57:34;21.67;;;14.77;;
27402;SDS011;14862;49.494;8.530;2023-03-01T09:00:00;22.35;;;15.27;;
27402;SDS011;14862;49.494;8.530;2023-03-01T09:02:25;23.02;;;16.10;;
27402;SDS011;14862;49.494;8.530;2023-03-01T09:04:50;20.38;;;15.40;;
27402;SDS011;14862;49.494;8.530;2023-03-01T09:07:16;20.52;;;15.57;;
27402;SDS011;14862;49.494;8.530;2023-03-01T09:09:41;20.67;;;15.00;;
27402;SDS011;14862;49.494;8.530;2023-03-01T09:12:07;24.87;;;15.70;;
27402;SDS011;14862;49.494;8.530;2023-03-01T09:14:32;21.43;;;15.00;;
27402;SDS011;14862;49.494;8.530;2023-03-01T09:16:57;21.60;;;15.00;;
27402;SDS011;14862;49.494;8.530;2023-03-01T09:19:22;22.45;;;15.75;;
27402;SDS011;14862;49.494;8.530;2023-03-01T09:21:47;21.07;;;15.03;;
27402;SDS011;14862;49.494;8.530;2023-03-01T09:24:20;18.60;;;15.32;;
27402;SDS011;14862;49.494;8.530;2023-03-01T09:26:46;26.13;;;16.02;;
27402;SDS011;14862;49.494;8.530;2023-03-01T09:29:11;21.95;;;16.52;;
27402;SDS011;14862;49.494;8.530;2023-03-01T09:31:37;24.48;;;15.55;;
27402;SDS011;14862;49.494;8.530;2023-03-01T09:34:02;22.27;;;16.17;;
27402;SDS011;14862;49.494;8.530;2023-03-01T09:36:27;21.27;;;15.02;;
27402;SDS011;14862;49.494;8.530;2023-03-01T09:38:53;20.23;;;15.85;;
27402;SDS011;14862;49.494;8.530;2023-03-01T09:44:27;26.05;;;16.13;;
27402;SDS011;14862;49.494;8.530;2023-03-01T09:46:49;23.02;;;16.42;;
27402;SDS011;14862;49.494;8.530;2023-03-01T09:49:15;23.50;;;16.23;;
27402;SDS011;14862;49.494;8.530;2023-03-01T09:51:42;22.42;;;16.80;;
27402;SDS011;14862;49.494;8.530;2023-03-01T09:54:10;21.65;;;15.65;;
27402;SDS011;14862;49.494;8.530;2023-03-01T09:56:40;22.27;;;16.55;;
27402;SDS011;14862;49.494;8.530;2023-03-01T10:04:00;23.88;;;16.88;;
27402;SDS011;14862;49.494;8.530;2023-03-01T10:06:28;27.13;;;17.45;;
27402;SDS011;14862;49.494;8.530;2023-03-01T10:11:28;26.17;;;17.00;;
27402;SDS011;14862;49.494;8.530;2023-03-01T10:18:51;25.60;;;15.93;;
27402;SDS011;14862;49.494;8.530;2023-03-01T10:21:18;25.25;;;15.88;;
27402;SDS011;14862;49.494;8.530;2023-03-01T10:23:44;31.08;;;18.45;;
27402;SDS011;14862;49.494;8.530;2023-03-01T10:26:20;27.58;;;17.67;;
27402;SDS011;14862;49.494;8.530;2023-03-01T10:31:40;29.27;;;17.13;;
27402;SDS011;14862;49.494;8.530;2023-03-01T10:34:09;25.05;;;17.52;;
27402;SDS011;14862;49.494;8.530;2023-03-01T10:36:34;29.73;;;19.05;;
27402;SDS011;14862;49.494;8.530;2023-03-01T10:39:00;30.10;;;18.33;;
27402;SDS011;14862;49.494;8.530;2023-03-01T10:41:28;28.27;;;18.52;;
27402;SDS011;14862;49.494;8.530;2023-03-01T10:43:55;28.55;;;17.80;;
27402;SDS011;14862;49.494;8.530;2023-03-01T10:46:25;27.30;;;16.80;;
27402;SDS011;14862;49.494;8.530;2023-03-01T10:49:06;25.42;;;17.13;;
27402;SDS011;14862;49.494;8.530;2023-03-01T10:51:32;27.05;;;16.38;;
27402;SDS011;14862;49.494;8.530;2023-03-01T10:53:57;30.90;;;18.83;;
27402;SDS011;14862;49.494;8.530;2023-03-01T10:56:22;26.13;;;17.20;;
27402;SDS011;14862;49.494;8.530;2023-03-01T10:58:57;27.90;;;17.73;;
27402;SDS011;14862;49.494;8.530;2023-03-01T11:04:02;29.97;;;17.70;;
27402;SDS011;14862;49.494;8.530;2023-03-01T11:06:28;26.85;;;17.75;;
27402;SDS011;14862;49.494;8.530;2023-03-01T11:08:53;27.02;;;16.85;;
27402;SDS011;14862;49.494;8.530;2023-03-01T11:11:32;27.75;;;17.30;;
27402;SDS011;14862;49.494;8.530;2023-03-01T11:16:35;25.98;;;17.25;;
27402;SDS011;14862;49.494;8.530;2023-03-01T11:21:36;29.48;;;18.08;;
27402;SDS011;14862;49.494;8.530;2023-03-01T11:24:02;26.77;;;17.77;;
27402;SDS011;14862;49.494;8.530;2023-03-01T11:26:29;27.70;;;16.95;;
27402;SDS011;14862;49.494;8.530;2023-03-01T11:28:57;26.30;;;17.08;;
27402;SDS011;14862;49.494;8.530;2023-03-01T11:31:23;25.98;;;16.95;;
27402;SDS011;14862;49.494;8.530;2023-03-01T11:33:56;28.73;;;17.73;;
27402;SDS011;14862;49.494;8.530;2023-03-01T11:38:54;27.23;;;17.23;;
27402;SDS011;14862;49.494;8.530;2023-03-01T11:41:21;25.38;;;16.55;;
27402;SDS011;14862;49.494;8.530;2023-03-01T11:43:51;28.23;;;17.60;;
27402;SDS011;14862;49.494;8.530;2023-03-01T11:46:25;29.00;;;17.95;;
27402;SDS011;14862;49.494;8.530;2023-03-01T11:48:59;29.38;;;17.10;;
27402;SDS011;14862;49.494;8.530;2023-03-01T11:51:33;31.58;;;17.73;;
27402;SDS011;14862;49.494;8.530;2023-03-01T11:54:06;25.52;;;17.05;;
27402;SDS011;14862;49.494;8.530;2023-03-01T11:56:38;27.17;;;16.50;;
27402;SDS011;14862;49.494;8.530;2023-03-01T11:59:09;24.80;;;16.35;;
27402;SDS011;14862;49.494;8.530;2023-03-01T12:01:44;30.60;;;18.20;;
27402;SDS011;14862;49.494;8.530;2023-03-01T12:06:56;28.98;;;17.65;;
27402;SDS011;14862;49.494;8.530;2023-03-01T12:09:26;30.48;;;17.02;;
27402;SDS011;14862;49.494;8.530;2023-03-01T12:14:42;28.75;;;17.25;;
27402;SDS011;14862;49.494;8.530;2023-03-01T12:17:32;26.77;;;16.85;;
27402;SDS011;14862;49.494;8.530;2023-03-01T12:22:30;27.92;;;17.63;;
27402;SDS011;14862;49.494;8.530;2023-03-01T12:39:49;39.70;;;20.65;;
27402;SDS011;14862;49.494;8.530;2023-03-01T12:45:12;30.83;;;17.40;;
27402;SDS011;14862;49.494;8.530;2023-03-01T12:47:47;27.38;;;15.45;;
27402;SDS011;14862;49.494;8.530;2023-03-01T12:50:20;25.05;;;16.05;;
27402;SDS011;14862;49.494;8.530;2023-03-01T12:52:56;26.33;;;16.77;;
27402;SDS011;14862;49.494;8.530;2023-03-01T12:58:01;26.70;;;17.05;;
27402;SDS011;14862;49.494;8.530;2023-03-01T13:00:35;29.98;;;16.73;;
27402;SDS011;14862;49.494;8.530;2023-03-01T13:03:10;28.33;;;16.60;;
27402;SDS011;14862;49.494;8.530;2023-03-01T13:10:36;24.17;;;16.45;;
27402;SDS011;14862;49.494;8.530;2023-03-01T13:13:11;26.23;;;16.83;;
27402;SDS011;14862;49.494;8.530;2023-03-01T13:15:38;25.27;;;16.73;;
27402;SDS011;14862;49.494;8.530;2023-03-01T13:23:08;25.87;;;15.00;;
27402;SDS011;14862;49.494;8.530;2023-03-01T13:25:35;24.00;;;15.60;;
27402;SDS011;14862;49.494;8.530;2023-03-01T13:28:40;24.73;;;15.57;;
27402;SDS011;14862;49.494;8.530;2023-03-01T13:31:08;22.80;;;15.52;;
27402;SDS011;14862;49.494;8.530;2023-03-01T13:33:39;27.63;;;15.88;;
27402;SDS011;14862;49.494;8.530;2023-03-01T13:36:05;22.25;;;14.55;;
27402;SDS011;14862;49.494;8.530;2023-03-01T13:38:46;24.70;;;14.52;;
27402;SDS011;14862;49.494;8.530;2023-03-01T13:41:15;26.48;;;14.70;;
27402;SDS011;14862;49.494;8.530;2023-03-01T13:43:41;25.65;;;14.93;;
27402;SDS011;14862;49.494;8.530;2023-03-01T13:46:08;25.50;;;14.85;;
27402;SDS011;14862;49.494;8.530;2023-03-01T13:48:34;22.77;;;14.40;;
27402;SDS011;14862;49.494;8.530;2023-03-01T13:51:00;25.42;;;14.50;;
27402;SDS011;14862;49.494;8.530;2023-03-01T13:53:28;20.48;;;13.98;;
27402;SDS011;14862;49.494;8.530;2023-03-01T13:55:55;25.92;;;15.57;;
27402;SDS011;14862;49.494;8.530;2023-03-01T13:58:28;19.15;;;12.32;;
27402;SDS011;14862;49.494;8.530;2023-03-01T14:00:58;23.42;;;14.45;;
27402;SDS011;14862;49.494;8.530;2023-03-01T14:03:23;21.75;;;13.80;;
27402;SDS011;14862;49.494;8.530;2023-03-01T14:08:24;23.08;;;13.93;;
27402;SDS011;14862;49.494;8.530;2023-03-01T14:18:54;19.67;;;13.03;;
27402;SDS011;14862;49.494;8.530;2023-03-01T14:21:23;20.38;;;13.38;;
27402;SDS011;14862;49.494;8.530;2023-03-01T14:23:50;18.75;;;12.82;;
27402;SDS011;14862;49.494;8.530;2023-03-01T14:26:19;21.05;;;13.05;;
27402;SDS011;14862;49.494;8.530;2023-03-01T14:28:45;22.33;;;13.30;;
27402;SDS011;14862;49.494;8.530;2023-03-01T14:31:30;19.13;;;12.70;;
27402;SDS011;14862;49.494;8.530;2023-03-01T14:33:56;19.42;;;12.80;;
27402;SDS011;14862;49.494;8.530;2023-03-01T14:36:28;19.60;;;13.10;;
27402;SDS011;14862;49.494;8.530;2023-03-01T14:38:54;18.77;;;12.07;;
27402;SDS011;14862;49.494;8.530;2023-03-01T14:41:20;24.90;;;14.17;;
27402;SDS011;14862;49.494;8.530;2023-03-01T14:43:47;19.48;;;12.43;;
27402;SDS011;14862;49.494;8.530;2023-03-01T14:46:19;21.23;;;13.48;;
27402;SDS011;14862;49.494;8.530;2023-03-01T14:48:45;19.52;;;12.25;;
27402;SDS011;14862;49.494;8.530;2023-03-01T14:51:10;20.00;;;12.93;;
27402;SDS011;14862;49.494;8.530;2023-03-01T14:53:36;20.80;;;12.18;;
27402;SDS011;14862;49.494;8.530;2023-03-01T14:56:01;22.10;;;12.80;;
27402;SDS011;14862;49.494;8.530;2023-03-01T14:58:31;17.83;;;10.85;;
27402;SDS011;14862;49.494;8.530;2023-03-01T15:01:06;20.58;;;11.88;;
27402;SDS011;14862;49.494;8.530;2023-03-01T15:03:37;18.48;;;12.00;;
27402;SDS011;14862;49.494;8.530;2023-03-01T15:06:03;19.80;;;11.98;;
27402;SDS011;14862;49.494;8.530;2023-03-01T15:08:29;18.27;;;10.95;;
27402;SDS011;14862;49.494;8.530;2023-03-01T15:13:34;14.15;;;10.50;;
27402;SDS011;14862;49.494;8.530;2023-03-01T15:18:28;18.48;;;11.20;;
27402;SDS011;14862;49.494;8.530;2023-03-01T15:20:54;18.92;;;11.48;;
27402;SDS011;14862;49.494;8.530;2023-03-01T15:23:21;17.75;;;11.32;;
27402;SDS011;14862;49.494;8.530;2023-03-01T15:25:47;18.52;;;11.18;;
27402;SDS011;14862;49.494;8.530;2023-03-01T15:28:21;15.30;;;10.73;;
27402;SDS011;14862;49.494;8.530;2023-03-01T15:30:51;15.77;;;10.57;;
27402;SDS011;14862;49.494;8.530;2023-03-01T15:35:55;15.05;;;9.90;;
27402;SDS011;14862;49.494;8.530;2023-03-01T15:38:49;15.40;;;9.50;;
27402;SDS011;14862;49.494;8.530;2023-03-01T15:41:25;13.95;;;9.70;;
27402;SDS011;14862;49.494;8.530;2023-03-01T15:43:51;16.38;;;10.70;;
27402;SDS011;14862;49.494;8.530;2023-03-01T15:46:21;17.25;;;11.15;;
27402;SDS011;14862;49.494;8.530;2023-03-01T15:48:50;16.20;;;10.77;;
27402;SDS011;14862;49.494;8.530;2023-03-01T15:51:17;19.00;;;11.10;;
27402;SDS011;14862;49.494;8.530;2023-03-01T15:53:44;17.08;;;10.65;;
27402;SDS011;14862;49.494;8.530;2023-03-01T15:56:10;21.80;;;11.48;;
27402;SDS011;14862;49.494;8.530;2023-03-01T15:58:35;16.92;;;10.32;;
27402;SDS011;14862;49.494;8.530;2023-03-01T16:01:01;19.05;;;11.50;;